sensor_id;sensor_type;location;lat;lon;timestamp;temperature;humidity
51733;DHT22;39139;53.144;6.244;2024-01-15T00:01:29;2.40;99.90
51733;DHT22;39139;53.144;6.244;2024-01-15T00:03:54;3.00;99.90
51733;DHT22;39139;53.144;6.244;2024-01-15T00:06:20;2.60;99.90
51733;DHT22;39139;53.144;6.244;2024-01-15T00:08:46;2.60;99.90
51733;DHT22;39139;53.144;6.244;2024-01-15T00:11:11;2.70;99.90
51733;DHT22;39139;53.144;6.244;2024-01-15T00:13:37;3.90;99.90
51733;DHT22;39139;53.144;6.244;2024-01-15T00:16:04;2.80;99.90
51733;DHT22;39139;53.144;6.244;2024-01-15T00:18:30;2.80;99.90
51733;DHT22;39139;53.144;6.244;2024-01-15T00:20:55;2.90;99.90
51733;DHT22;39139;53.144;6.244;2024-01-15T00:23:22;3.00;99.90
51733;DHT22;39139;53.144;6.244;2024-01-15T00:25:48;2.90;99.90
51733;DHT22;39139;53.144;6.244;2024-01-15T00:28:13;3.00;99.90
51733;DHT22;39139;53.144;6.244;2024-01-15T00:30:39;3.00;99.90
51733;DHT22;39139;53.144;6.244;2024-01-15T00:33:04;3.00;99.90
51733;DHT22;39139;53.144;6.244;2024-01-15T00:35:30;2.90;99.90
51733;DHT22;39139;53.144;6.244;2024-01-15T00:37:56;2.90;99.90
51733;DHT22;39139;53.144;6.244;2024-01-15T00:40:21;2.90;99.90
51733;DHT22;39139;53.144;6.244;2024-01-15T00:42:47;3.00;99.90
51733;DHT22;39139;53.144;6.244;2024-01-15T00:45:12;3.10;99.90
51733;DHT22;39139;53.144;6.244;2024-01-15T00:47:38;3.10;99.90
51733;DHT22;39139;53.144;6.244;2024-01-15T00:50:04;4.10;99.90
51733;DHT22;39139;53.144;6.244;2024-01-15T00:52:30;3.00;99.90
51733;DHT22;39139;53.144;6.244;2024-01-15T00:54:55;2.90;99.90
51733;DHT22;39139;53.144;6.244;2024-01-15T00:57:21;2.80;99.90
51733;DHT22;39139;53.144;6.244;2024-01-15T00:59:47;2.90;99.90
51733;DHT22;39139;53.144;6.244;2024-01-15T01:02:12;2.90;99.90
51733;DHT22;39139;53.144;6.244;2024-01-15T01:04:38;2.80;99.90
51733;DHT22;39139;53.144;6.244;2024-01-15T01:07:03;2.80;99.90
51733;DHT22;39139;53.144;6.244;2024-01-15T01:09:29;2.70;99.90
51733;DHT22;39139;53.144;6.244;2024-01-15T01:11:56;2.70;99.90
51733;DHT22;39139;53.144;6.244;2024-01-15T01:14:22;2.70;99.90
51733;DHT22;39139;53.144;6.244;2024-01-15T01:16:47;2.70;99.90
51733;DHT22;39139;53.144;6.244;2024-01-15T01:19:13;2.60;99.90
51733;DHT22;39139;53.144;6.244;2024-01-15T01:21:39;2.60;99.90
51733;DHT22;39139;53.144;6.244;2024-01-15T01:24:04;2.50;99.90
51733;DHT22;39139;53.144;6.244;2024-01-15T01:26:30;2.50;99.90
51733;DHT22;39139;53.144;6.244;2024-01-15T01:28:56;2.50;99.90
51733;DHT22;39139;53.144;6.244;2024-01-15T01:31:23;2.50;99.90
51733;DHT22;39139;53.144;6.244;2024-01-15T01:33:49;2.50;99.90
51733;DHT22;39139;53.144;6.244;2024-01-15T01:36:14;2.40;99.90
51733;DHT22;39139;53.144;6.244;2024-01-15T01:38:41;2.40;99.90
51733;DHT22;39139;53.144;6.244;2024-01-15T01:41:07;2.50;99.90
51733;DHT22;39139;53.144;6.244;2024-01-15T01:43:33;2.50;99.90
51733;DHT22;39139;53.144;6.244;2024-01-15T01:46:00;2.40;99.90
51733;DHT22;39139;53.144;6.244;2024-01-15T01:48:26;2.30;99.90
51733;DHT22;39139;53.144;6.244;2024-01-15T01:50:58;2.20;99.90
51733;DHT22;39139;53.144;6.244;2024-01-15T01:53:28;2.00;99.90
51733;DHT22;39139;53.144;6.244;2024-01-15T01:55:56;2.00;99.90
51733;DHT22;39139;53.144;6.244;2024-01-15T01:58:22;1.90;99.90
51733;DHT22;39139;53.144;6.244;2024-01-15T02:00:48;1.80;99.90
51733;DHT22;39139;53.144;6.244;2024-01-15T02:03:15;1.70;99.90
51733;DHT22;39139;53.144;6.244;2024-01-15T02:05:42;1.70;99.90
51733;DHT22;39139;53.144;6.244;2024-01-15T02:08:08;1.70;99.90
51733;DHT22;39139;53.144;6.244;2024-01-15T02:10:34;1.70;99.90
51733;DHT22;39139;53.144;6.244;2024-01-15T02:12:59;1.80;99.90
51733;DHT22;39139;53.144;6.244;2024-01-15T02:15:25;1.70;99.90
51733;DHT22;39139;53.144;6.244;2024-01-15T02:18:01;1.70;99.90
51733;DHT22;39139;53.144;6.244;2024-01-15T02:20:27;1.80;99.90
51733;DHT22;39139;53.144;6.244;2024-01-15T02:22:53;1.80;99.90
51733;DHT22;39139;53.144;6.244;2024-01-15T02:25:19;1.80;99.90
51733;DHT22;39139;53.144;6.244;2024-01-15T02:27:45;1.90;99.90
51733;DHT22;39139;53.144;6.244;2024-01-15T02:30:12;2.00;99.90
51733;DHT22;39139;53.144;6.244;2024-01-15T02:32:40;2.10;99.90
51733;DHT22;39139;53.144;6.244;2024-01-15T02:35:06;2.10;99.90
51733;DHT22;39139;53.144;6.244;2024-01-15T02:37:32;2.10;99.90
51733;DHT22;39139;53.144;6.244;2024-01-15T02:39:58;2.10;99.90
51733;DHT22;39139;53.144;6.244;2024-01-15T02:42:26;2.10;99.90
51733;DHT22;39139;53.144;6.244;2024-01-15T02:44:52;2.10;99.90
51733;DHT22;39139;53.144;6.244;2024-01-15T02:47:17;2.10;99.90
51733;DHT22;39139;53.144;6.244;2024-01-15T02:49:43;2.10;99.90
51733;DHT22;39139;53.144;6.244;2024-01-15T02:52:08;2.20;99.90
51733;DHT22;39139;53.144;6.244;2024-01-15T02:54:34;2.10;99.90
51733;DHT22;39139;53.144;6.244;2024-01-15T02:56:59;2.10;99.90
51733;DHT22;39139;53.144;6.244;2024-01-15T02:59:25;2.10;99.90
51733;DHT22;39139;53.144;6.244;2024-01-15T03:01:51;2.00;99.90
51733;DHT22;39139;53.144;6.244;2024-01-15T03:04:16;2.00;99.90
51733;DHT22;39139;53.144;6.244;2024-01-15T03:06:42;1.90;99.90
51733;DHT22;39139;53.144;6.244;2024-01-15T03:09:07;1.90;99.90
51733;DHT22;39139;53.144;6.244;2024-01-15T03:11:40;1.90;99.90
51733;DHT22;39139;53.144;6.244;2024-01-15T03:14:06;2.00;99.90
51733;DHT22;39139;53.144;6.244;2024-01-15T03:16:32;2.10;99.90
51733;DHT22;39139;53.144;6.244;2024-01-15T03:18:57;2.20;99.90
51733;DHT22;39139;53.144;6.244;2024-01-15T03:21:23;2.20;99.90
51733;DHT22;39139;53.144;6.244;2024-01-15T03:23:48;2.20;99.90
51733;DHT22;39139;53.144;6.244;2024-01-15T03:26:14;3.30;99.90
51733;DHT22;39139;53.144;6.244;2024-01-15T03:28:39;2.30;99.90
51733;DHT22;39139;53.144;6.244;2024-01-15T03:31:05;2.30;99.90
51733;DHT22;39139;53.144;6.244;2024-01-15T03:33:30;2.20;99.90
51733;DHT22;39139;53.144;6.244;2024-01-15T03:35:56;2.20;99.90
51733;DHT22;39139;53.144;6.244;2024-01-15T03:38:23;2.10;99.90
51733;DHT22;39139;53.144;6.244;2024-01-15T03:40:48;2.10;99.90
51733;DHT22;39139;53.144;6.244;2024-01-15T03:43:14;2.10;99.90
51733;DHT22;39139;53.144;6.244;2024-01-15T03:45:40;2.10;99.90
51733;DHT22;39139;53.144;6.244;2024-01-15T03:48:05;2.10;99.90
51733;DHT22;39139;53.144;6.244;2024-01-15T03:50:31;2.10;99.90
51733;DHT22;39139;53.144;6.244;2024-01-15T03:52:57;2.20;99.90
51733;DHT22;39139;53.144;6.244;2024-01-15T03:55:22;2.20;99.90
51733;DHT22;39139;53.144;6.244;2024-01-15T03:57:48;2.20;99.90
51733;DHT22;39139;53.144;6.244;2024-01-15T04:00:15;2.20;99.90
51733;DHT22;39139;53.144;6.244;2024-01-15T04:02:43;2.20;99.90
51733;DHT22;39139;53.144;6.244;2024-01-15T04:05:09;2.30;99.90
51733;DHT22;39139;53.144;6.244;2024-01-15T04:07:34;2.50;99.90
51733;DHT22;39139;53.144;6.244;2024-01-15T04:10:00;2.60;99.90
51733;DHT22;39139;53.144;6.244;2024-01-15T04:12:26;2.60;99.90
51733;DHT22;39139;53.144;6.244;2024-01-15T04:14:51;2.50;99.90
51733;DHT22;39139;53.144;6.244;2024-01-15T04:17:17;2.50;99.90
51733;DHT22;39139;53.144;6.244;2024-01-15T04:19:46;2.50;99.90
51733;DHT22;39139;53.144;6.244;2024-01-15T04:22:13;2.40;99.90
51733;DHT22;39139;53.144;6.244;2024-01-15T04:24:39;2.20;99.90
51733;DHT22;39139;53.144;6.244;2024-01-15T04:27:05;2.10;99.90
51733;DHT22;39139;53.144;6.244;2024-01-15T04:29:30;2.00;99.90
51733;DHT22;39139;53.144;6.244;2024-01-15T04:31:56;1.90;99.90
51733;DHT22;39139;53.144;6.244;2024-01-15T04:34:22;1.80;99.90
51733;DHT22;39139;53.144;6.244;2024-01-15T04:36:47;1.70;99.90
51733;DHT22;39139;53.144;6.244;2024-01-15T04:39:13;1.60;99.90
51733;DHT22;39139;53.144;6.244;2024-01-15T04:41:38;1.60;99.90
51733;DHT22;39139;53.144;6.244;2024-01-15T04:44:04;1.50;99.90
51733;DHT22;39139;53.144;6.244;2024-01-15T04:46:29;1.40;99.90
51733;DHT22;39139;53.144;6.244;2024-01-15T04:48:55;1.40;99.90
51733;DHT22;39139;53.144;6.244;2024-01-15T04:51:21;1.40;99.90
51733;DHT22;39139;53.144;6.244;2024-01-15T04:53:46;1.30;99.90
51733;DHT22;39139;53.144;6.244;2024-01-15T04:56:12;1.30;99.90
51733;DHT22;39139;53.144;6.244;2024-01-15T04:58:37;1.30;99.90
51733;DHT22;39139;53.144;6.244;2024-01-15T05:01:03;1.40;99.90
51733;DHT22;39139;53.144;6.244;2024-01-15T05:03:29;1.40;99.90
51733;DHT22;39139;53.144;6.244;2024-01-15T05:05:55;3.10;99.90
51733;DHT22;39139;53.144;6.244;2024-01-15T05:08:20;2.20;99.90
51733;DHT22;39139;53.144;6.244;2024-01-15T05:10:47;1.60;99.90
51733;DHT22;39139;53.144;6.244;2024-01-15T05:13:12;1.70;99.90
51733;DHT22;39139;53.144;6.244;2024-01-15T05:15:38;1.70;99.90
51733;DHT22;39139;53.144;6.244;2024-01-15T05:18:04;1.80;99.90
51733;DHT22;39139;53.144;6.244;2024-01-15T05:20:29;1.80;99.90
51733;DHT22;39139;53.144;6.244;2024-01-15T05:22:55;1.80;99.90
51733;DHT22;39139;53.144;6.244;2024-01-15T05:25:20;1.80;99.90
51733;DHT22;39139;53.144;6.244;2024-01-15T05:27:46;1.80;99.90
51733;DHT22;39139;53.144;6.244;2024-01-15T05:30:12;1.70;99.90
51733;DHT22;39139;53.144;6.244;2024-01-15T05:32:38;1.60;99.90
51733;DHT22;39139;53.144;6.244;2024-01-15T05:35:04;1.50;99.90
51733;DHT22;39139;53.144;6.244;2024-01-15T05:37:29;1.50;99.90
51733;DHT22;39139;53.144;6.244;2024-01-15T05:39:55;1.40;99.90
51733;DHT22;39139;53.144;6.244;2024-01-15T05:42:20;1.40;99.90
51733;DHT22;39139;53.144;6.244;2024-01-15T05:44:46;1.30;99.90
51733;DHT22;39139;53.144;6.244;2024-01-15T05:47:11;1.30;99.90
51733;DHT22;39139;53.144;6.244;2024-01-15T05:49:37;1.30;99.90
51733;DHT22;39139;53.144;6.244;2024-01-15T05:52:03;1.30;99.90
51733;DHT22;39139;53.144;6.244;2024-01-15T05:54:29;1.30;99.90
51733;DHT22;39139;53.144;6.244;2024-01-15T05:56:54;1.30;99.90
51733;DHT22;39139;53.144;6.244;2024-01-15T05:59:20;1.30;99.90
51733;DHT22;39139;53.144;6.244;2024-01-15T06:01:46;1.20;99.90
51733;DHT22;39139;53.144;6.244;2024-01-15T06:04:11;1.20;99.90
51733;DHT22;39139;53.144;6.244;2024-01-15T06:06:37;1.20;99.90
51733;DHT22;39139;53.144;6.244;2024-01-15T06:09:02;1.10;99.90
51733;DHT22;39139;53.144;6.244;2024-01-15T06:11:31;1.10;99.90
51733;DHT22;39139;53.144;6.244;2024-01-15T06:13:57;1.60;99.90
51733;DHT22;39139;53.144;6.244;2024-01-15T06:16:24;1.00;99.90
51733;DHT22;39139;53.144;6.244;2024-01-15T06:18:49;1.00;99.90
51733;DHT22;39139;53.144;6.244;2024-01-15T06:21:16;0.90;99.90
51733;DHT22;39139;53.144;6.244;2024-01-15T06:23:41;1.00;99.90
51733;DHT22;39139;53.144;6.244;2024-01-15T06:26:07;1.40;99.90
51733;DHT22;39139;53.144;6.244;2024-01-15T06:28:33;1.30;99.90
51733;DHT22;39139;53.144;6.244;2024-01-15T06:30:58;1.60;99.90
51733;DHT22;39139;53.144;6.244;2024-01-15T06:33:24;1.70;99.90
51733;DHT22;39139;53.144;6.244;2024-01-15T06:35:50;1.80;99.90
51733;DHT22;39139;53.144;6.244;2024-01-15T06:38:16;1.70;99.90
51733;DHT22;39139;53.144;6.244;2024-01-15T06:40:41;1.60;99.90
51733;DHT22;39139;53.144;6.244;2024-01-15T06:43:11;1.70;99.90
51733;DHT22;39139;53.144;6.244;2024-01-15T06:45:37;1.60;99.90
51733;DHT22;39139;53.144;6.244;2024-01-15T06:48:03;1.50;99.90
51733;DHT22;39139;53.144;6.244;2024-01-15T06:50:28;1.50;99.90
51733;DHT22;39139;53.144;6.244;2024-01-15T06:52:54;1.50;99.90
51733;DHT22;39139;53.144;6.244;2024-01-15T06:55:19;1.40;99.90
51733;DHT22;39139;53.144;6.244;2024-01-15T06:57:45;1.40;99.90
51733;DHT22;39139;53.144;6.244;2024-01-15T07:00:11;1.40;99.90
51733;DHT22;39139;53.144;6.244;2024-01-15T07:02:36;1.40;99.90
51733;DHT22;39139;53.144;6.244;2024-01-15T07:05:02;1.40;99.90
51733;DHT22;39139;53.144;6.244;2024-01-15T07:07:30;1.40;99.90
51733;DHT22;39139;53.144;6.244;2024-01-15T07:09:56;1.40;99.90
51733;DHT22;39139;53.144;6.244;2024-01-15T07:12:22;1.30;99.90
51733;DHT22;39139;53.144;6.244;2024-01-15T07:14:47;1.30;99.90
51733;DHT22;39139;53.144;6.244;2024-01-15T07:17:13;1.30;99.90
51733;DHT22;39139;53.144;6.244;2024-01-15T07:19:39;1.30;99.90
51733;DHT22;39139;53.144;6.244;2024-01-15T07:22:04;1.30;99.90
51733;DHT22;39139;53.144;6.244;2024-01-15T07:24:30;1.20;99.90
51733;DHT22;39139;53.144;6.244;2024-01-15T07:26:55;1.30;99.90
51733;DHT22;39139;53.144;6.244;2024-01-15T07:29:21;1.30;99.90
51733;DHT22;39139;53.144;6.244;2024-01-15T07:31:50;1.40;99.90
51733;DHT22;39139;53.144;6.244;2024-01-15T07:34:16;1.50;99.90
51733;DHT22;39139;53.144;6.244;2024-01-15T07:36:44;1.50;99.90
51733;DHT22;39139;53.144;6.244;2024-01-15T07:39:09;1.60;99.90
51733;DHT22;39139;53.144;6.244;2024-01-15T07:41:35;1.60;99.90
51733;DHT22;39139;53.144;6.244;2024-01-15T07:44:01;1.70;99.90
51733;DHT22;39139;53.144;6.244;2024-01-15T07:46:27;1.70;99.90
51733;DHT22;39139;53.144;6.244;2024-01-15T07:48:52;1.70;99.90
51733;DHT22;39139;53.144;6.244;2024-01-15T07:51:22;1.60;99.90
51733;DHT22;39139;53.144;6.244;2024-01-15T07:53:48;1.60;99.90
51733;DHT22;39139;53.144;6.244;2024-01-15T07:56:13;1.60;99.90
51733;DHT22;39139;53.144;6.244;2024-01-15T07:58:39;1.60;99.90
51733;DHT22;39139;53.144;6.244;2024-01-15T08:01:04;1.50;99.90
51733;DHT22;39139;53.144;6.244;2024-01-15T08:03:30;1.50;99.90
51733;DHT22;39139;53.144;6.244;2024-01-15T08:05:56;1.40;99.90
51733;DHT22;39139;53.144;6.244;2024-01-15T08:08:23;1.30;99.90
51733;DHT22;39139;53.144;6.244;2024-01-15T08:10:49;1.30;99.90
51733;DHT22;39139;53.144;6.244;2024-01-15T08:13:15;1.30;99.90
51733;DHT22;39139;53.144;6.244;2024-01-15T08:15:41;1.30;99.90
51733;DHT22;39139;53.144;6.244;2024-01-15T08:18:07;1.30;99.90
51733;DHT22;39139;53.144;6.244;2024-01-15T08:20:32;1.30;99.90
51733;DHT22;39139;53.144;6.244;2024-01-15T08:22:58;1.40;99.90
51733;DHT22;39139;53.144;6.244;2024-01-15T08:25:23;1.40;99.90
51733;DHT22;39139;53.144;6.244;2024-01-15T08:27:49;1.40;99.90
51733;DHT22;39139;53.144;6.244;2024-01-15T08:30:15;1.50;99.90
51733;DHT22;39139;53.144;6.244;2024-01-15T08:32:40;1.50;99.90
51733;DHT22;39139;53.144;6.244;2024-01-15T08:35:08;1.60;99.90
51733;DHT22;39139;53.144;6.244;2024-01-15T08:37:34;1.70;99.90
51733;DHT22;39139;53.144;6.244;2024-01-15T08:40:00;1.80;99.90
51733;DHT22;39139;53.144;6.244;2024-01-15T08:42:26;2.10;99.90
51733;DHT22;39139;53.144;6.244;2024-01-15T08:44:51;2.20;99.90
51733;DHT22;39139;53.144;6.244;2024-01-15T08:47:17;2.30;99.90
51733;DHT22;39139;53.144;6.244;2024-01-15T08:49:43;2.10;99.90
51733;DHT22;39139;53.144;6.244;2024-01-15T08:52:10;1.90;99.90
51733;DHT22;39139;53.144;6.244;2024-01-15T08:54:36;1.60;99.90
51733;DHT22;39139;53.144;6.244;2024-01-15T08:57:01;1.50;99.90
51733;DHT22;39139;53.144;6.244;2024-01-15T08:59:27;1.50;99.90
51733;DHT22;39139;53.144;6.244;2024-01-15T09:01:53;1.50;99.90
51733;DHT22;39139;53.144;6.244;2024-01-15T09:04:19;1.50;99.90
51733;DHT22;39139;53.144;6.244;2024-01-15T09:06:46;1.50;99.90
51733;DHT22;39139;53.144;6.244;2024-01-15T09:09:17;1.50;99.90
51733;DHT22;39139;53.144;6.244;2024-01-15T09:11:44;1.50;99.90
51733;DHT22;39139;53.144;6.244;2024-01-15T09:14:10;1.50;99.90
51733;DHT22;39139;53.144;6.244;2024-01-15T09:16:36;1.50;99.90
51733;DHT22;39139;53.144;6.244;2024-01-15T09:19:01;1.60;99.90
51733;DHT22;39139;53.144;6.244;2024-01-15T09:21:27;1.70;99.90
51733;DHT22;39139;53.144;6.244;2024-01-15T09:23:52;1.90;99.90
51733;DHT22;39139;53.144;6.244;2024-01-15T09:26:18;2.20;99.90
51733;DHT22;39139;53.144;6.244;2024-01-15T09:28:44;2.40;99.90
51733;DHT22;39139;53.144;6.244;2024-01-15T09:31:09;2.30;99.90
51733;DHT22;39139;53.144;6.244;2024-01-15T09:33:35;2.20;99.90
51733;DHT22;39139;53.144;6.244;2024-01-15T09:36:04;2.10;99.90
51733;DHT22;39139;53.144;6.244;2024-01-15T09:38:31;2.10;99.90
51733;DHT22;39139;53.144;6.244;2024-01-15T09:40:57;1.90;99.90
51733;DHT22;39139;53.144;6.244;2024-01-15T09:43:23;1.90;99.90
51733;DHT22;39139;53.144;6.244;2024-01-15T09:45:49;1.90;99.90
51733;DHT22;39139;53.144;6.244;2024-01-15T09:48:15;1.90;99.90
51733;DHT22;39139;53.144;6.244;2024-01-15T09:50:43;1.90;99.90
51733;DHT22;39139;53.144;6.244;2024-01-15T09:53:09;2.00;99.90
51733;DHT22;39139;53.144;6.244;2024-01-15T09:55:38;2.10;99.90
51733;DHT22;39139;53.144;6.244;2024-01-15T09:58:04;2.40;99.90
51733;DHT22;39139;53.144;6.244;2024-01-15T10:00:30;2.50;99.90
51733;DHT22;39139;53.144;6.244;2024-01-15T10:02:58;2.60;99.90
51733;DHT22;39139;53.144;6.244;2024-01-15T10:05:27;2.60;99.90
51733;DHT22;39139;53.144;6.244;2024-01-15T10:07:54;2.50;99.90
51733;DHT22;39139;53.144;6.244;2024-01-15T10:10:21;2.80;99.90
51733;DHT22;39139;53.144;6.244;2024-01-15T10:12:48;3.30;99.90
51733;DHT22;39139;53.144;6.244;2024-01-15T10:15:14;3.30;99.90
51733;DHT22;39139;53.144;6.244;2024-01-15T10:17:41;3.20;99.90
51733;DHT22;39139;53.144;6.244;2024-01-15T10:20:11;3.00;99.90
51733;DHT22;39139;53.144;6.244;2024-01-15T10:22:44;2.80;99.90
51733;DHT22;39139;53.144;6.244;2024-01-15T10:25:12;2.70;99.90
51733;DHT22;39139;53.144;6.244;2024-01-15T10:27:39;2.80;99.90
51733;DHT22;39139;53.144;6.244;2024-01-15T10:30:06;2.80;99.90
51733;DHT22;39139;53.144;6.244;2024-01-15T10:32:32;2.70;99.90
51733;DHT22;39139;53.144;6.244;2024-01-15T10:34:57;2.60;99.90
51733;DHT22;39139;53.144;6.244;2024-01-15T10:37:33;2.40;99.90
51733;DHT22;39139;53.144;6.244;2024-01-15T10:40:04;2.40;99.90
51733;DHT22;39139;53.144;6.244;2024-01-15T10:42:32;2.40;99.90
51733;DHT22;39139;53.144;6.244;2024-01-15T10:44:58;2.30;99.90
51733;DHT22;39139;53.144;6.244;2024-01-15T10:47:23;2.30;99.90
51733;DHT22;39139;53.144;6.244;2024-01-15T10:49:49;2.40;99.90
51733;DHT22;39139;53.144;6.244;2024-01-15T10:52:15;2.40;99.90
51733;DHT22;39139;53.144;6.244;2024-01-15T10:54:41;2.80;99.90
51733;DHT22;39139;53.144;6.244;2024-01-15T10:57:08;2.40;99.90
51733;DHT22;39139;53.144;6.244;2024-01-15T10:59:34;2.30;99.90
51733;DHT22;39139;53.144;6.244;2024-01-15T11:02:00;2.30;99.90
51733;DHT22;39139;53.144;6.244;2024-01-15T11:04:26;2.30;99.90
51733;DHT22;39139;53.144;6.244;2024-01-15T11:06:54;2.30;99.90
51733;DHT22;39139;53.144;6.244;2024-01-15T11:09:21;2.30;99.90
51733;DHT22;39139;53.144;6.244;2024-01-15T11:11:47;2.30;99.90
51733;DHT22;39139;53.144;6.244;2024-01-15T11:17:59;2.30;99.90
51733;DHT22;39139;53.144;6.244;2024-01-15T11:20:26;2.30;99.90
51733;DHT22;39139;53.144;6.244;2024-01-15T11:22:51;2.30;99.90
51733;DHT22;39139;53.144;6.244;2024-01-15T11:25:20;2.30;99.90
51733;DHT22;39139;53.144;6.244;2024-01-15T11:27:50;2.30;99.90
51733;DHT22;39139;53.144;6.244;2024-01-15T11:30:24;2.40;99.90
51733;DHT22;39139;53.144;6.244;2024-01-15T11:32:50;2.40;99.90
51733;DHT22;39139;53.144;6.244;2024-01-15T11:35:16;2.40;99.90
51733;DHT22;39139;53.144;6.244;2024-01-15T11:40:43;2.10;99.90
51733;DHT22;39139;53.144;6.244;2024-01-15T11:43:11;1.90;99.90
51733;DHT22;39139;53.144;6.244;2024-01-15T11:45:39;1.70;99.90
51733;DHT22;39139;53.144;6.244;2024-01-15T11:48:14;1.60;99.90
51733;DHT22;39139;53.144;6.244;2024-01-15T11:50:42;1.50;99.90
51733;DHT22;39139;53.144;6.244;2024-01-15T11:53:17;1.40;99.90
51733;DHT22;39139;53.144;6.244;2024-01-15T11:55:46;1.30;99.90
51733;DHT22;39139;53.144;6.244;2024-01-15T11:58:14;1.30;99.90
51733;DHT22;39139;53.144;6.244;2024-01-15T12:00:42;1.30;99.90
51733;DHT22;39139;53.144;6.244;2024-01-15T12:03:08;1.40;99.90
51733;DHT22;39139;53.144;6.244;2024-01-15T12:05:37;1.40;99.90
51733;DHT22;39139;53.144;6.244;2024-01-15T12:08:03;1.80;99.90
51733;DHT22;39139;53.144;6.244;2024-01-15T12:10:29;1.60;99.90
51733;DHT22;39139;53.144;6.244;2024-01-15T12:15:32;1.70;99.90
51733;DHT22;39139;53.144;6.244;2024-01-15T12:17:59;1.80;99.90
51733;DHT22;39139;53.144;6.244;2024-01-15T12:20:26;1.90;99.90
51733;DHT22;39139;53.144;6.244;2024-01-15T12:22:52;1.90;99.90
51733;DHT22;39139;53.144;6.244;2024-01-15T12:25:18;2.00;99.90
51733;DHT22;39139;53.144;6.244;2024-01-15T12:27:44;2.00;99.90
51733;DHT22;39139;53.144;6.244;2024-01-15T12:30:11;2.10;99.90
51733;DHT22;39139;53.144;6.244;2024-01-15T12:32:37;2.20;99.90
51733;DHT22;39139;53.144;6.244;2024-01-15T12:35:03;2.30;99.90
51733;DHT22;39139;53.144;6.244;2024-01-15T12:37:30;2.40;99.90
51733;DHT22;39139;53.144;6.244;2024-01-15T12:39:55;2.30;99.90
51733;DHT22;39139;53.144;6.244;2024-01-15T12:42:21;2.30;99.90
51733;DHT22;39139;53.144;6.244;2024-01-15T12:44:47;2.20;99.90
51733;DHT22;39139;53.144;6.244;2024-01-15T12:47:13;2.10;99.90
51733;DHT22;39139;53.144;6.244;2024-01-15T12:49:40;2.00;99.90
51733;DHT22;39139;53.144;6.244;2024-01-15T12:52:09;1.90;99.90
51733;DHT22;39139;53.144;6.244;2024-01-15T12:54:35;1.90;99.90
51733;DHT22;39139;53.144;6.244;2024-01-15T12:57:00;2.00;99.90
51733;DHT22;39139;53.144;6.244;2024-01-15T12:59:26;2.20;99.90
51733;DHT22;39139;53.144;6.244;2024-01-15T13:01:52;2.20;99.90
51733;DHT22;39139;53.144;6.244;2024-01-15T13:04:22;2.20;99.90
51733;DHT22;39139;53.144;6.244;2024-01-15T13:06:47;2.10;99.90
51733;DHT22;39139;53.144;6.244;2024-01-15T13:09:14;2.00;99.90
51733;DHT22;39139;53.144;6.244;2024-01-15T13:11:40;2.10;99.90
51733;DHT22;39139;53.144;6.244;2024-01-15T13:14:06;2.30;99.90
51733;DHT22;39139;53.144;6.244;2024-01-15T13:16:31;2.70;99.90
51733;DHT22;39139;53.144;6.244;2024-01-15T13:18:57;2.70;99.90
51733;DHT22;39139;53.144;6.244;2024-01-15T13:21:24;2.60;99.90
51733;DHT22;39139;53.144;6.244;2024-01-15T13:23:50;2.50;99.90
51733;DHT22;39139;53.144;6.244;2024-01-15T13:26:15;2.30;99.90
51733;DHT22;39139;53.144;6.244;2024-01-15T13:28:43;2.20;99.90
51733;DHT22;39139;53.144;6.244;2024-01-15T13:31:09;2.10;99.90
51733;DHT22;39139;53.144;6.244;2024-01-15T13:33:35;2.20;99.90
51733;DHT22;39139;53.144;6.244;2024-01-15T13:36:00;2.30;99.90
51733;DHT22;39139;53.144;6.244;2024-01-15T13:38:26;2.20;99.90
51733;DHT22;39139;53.144;6.244;2024-01-15T13:40:53;2.20;99.90
51733;DHT22;39139;53.144;6.244;2024-01-15T13:43:20;2.10;99.90
51733;DHT22;39139;53.144;6.244;2024-01-15T13:45:46;2.10;99.90
51733;DHT22;39139;53.144;6.244;2024-01-15T13:48:12;2.20;99.90
51733;DHT22;39139;53.144;6.244;2024-01-15T13:50:37;2.30;99.90
51733;DHT22;39139;53.144;6.244;2024-01-15T13:53:03;2.20;99.90
51733;DHT22;39139;53.144;6.244;2024-01-15T13:55:30;2.20;99.90
51733;DHT22;39139;53.144;6.244;2024-01-15T13:57:55;2.30;99.90
51733;DHT22;39139;53.144;6.244;2024-01-15T14:00:21;2.30;99.90
51733;DHT22;39139;53.144;6.244;2024-01-15T14:02:47;2.40;99.90
51733;DHT22;39139;53.144;6.244;2024-01-15T14:05:13;2.30;99.90
51733;DHT22;39139;53.144;6.244;2024-01-15T14:07:39;2.10;99.90
51733;DHT22;39139;53.144;6.244;2024-01-15T14:10:05;2.10;99.90
51733;DHT22;39139;53.144;6.244;2024-01-15T14:12:33;2.10;99.90
51733;DHT22;39139;53.144;6.244;2024-01-15T14:14:59;2.20;99.90
51733;DHT22;39139;53.144;6.244;2024-01-15T14:17:25;2.20;99.90
51733;DHT22;39139;53.144;6.244;2024-01-15T14:19:51;2.20;99.90
51733;DHT22;39139;53.144;6.244;2024-01-15T14:22:16;2.20;99.90
51733;DHT22;39139;53.144;6.244;2024-01-15T14:24:42;2.10;99.90
51733;DHT22;39139;53.144;6.244;2024-01-15T14:27:07;2.20;99.90
51733;DHT22;39139;53.144;6.244;2024-01-15T14:29:34;2.20;99.90
51733;DHT22;39139;53.144;6.244;2024-01-15T14:32:01;2.20;99.90
51733;DHT22;39139;53.144;6.244;2024-01-15T14:34:27;2.20;99.90
51733;DHT22;39139;53.144;6.244;2024-01-15T14:36:53;2.20;99.90
51733;DHT22;39139;53.144;6.244;2024-01-15T14:39:20;2.30;99.90
51733;DHT22;39139;53.144;6.244;2024-01-15T14:41:46;2.30;99.90
51733;DHT22;39139;53.144;6.244;2024-01-15T14:44:12;2.30;99.90
51733;DHT22;39139;53.144;6.244;2024-01-15T14:46:38;2.40;99.90
51733;DHT22;39139;53.144;6.244;2024-01-15T14:49:03;2.30;99.90
51733;DHT22;39139;53.144;6.244;2024-01-15T14:51:29;2.10;99.90
51733;DHT22;39139;53.144;6.244;2024-01-15T14:53:55;1.80;99.90
51733;DHT22;39139;53.144;6.244;2024-01-15T14:56:20;1.60;99.90
51733;DHT22;39139;53.144;6.244;2024-01-15T14:58:46;1.80;99.90
51733;DHT22;39139;53.144;6.244;2024-01-15T15:01:12;1.40;99.90
51733;DHT22;39139;53.144;6.244;2024-01-15T15:03:38;1.40;99.90
51733;DHT22;39139;53.144;6.244;2024-01-15T15:06:04;2.30;99.90
51733;DHT22;39139;53.144;6.244;2024-01-15T15:08:30;1.20;99.90
51733;DHT22;39139;53.144;6.244;2024-01-15T15:10:55;1.20;99.90
51733;DHT22;39139;53.144;6.244;2024-01-15T15:13:22;1.10;99.90
51733;DHT22;39139;53.144;6.244;2024-01-15T15:15:48;1.10;99.90
51733;DHT22;39139;53.144;6.244;2024-01-15T15:18:14;1.00;99.90
51733;DHT22;39139;53.144;6.244;2024-01-15T15:20:40;1.00;99.90
51733;DHT22;39139;53.144;6.244;2024-01-15T15:23:05;1.00;99.90
51733;DHT22;39139;53.144;6.244;2024-01-15T15:25:34;1.00;99.90
51733;DHT22;39139;53.144;6.244;2024-01-15T15:28:01;1.00;99.90
51733;DHT22;39139;53.144;6.244;2024-01-15T15:30:27;1.00;99.90
51733;DHT22;39139;53.144;6.244;2024-01-15T15:32:53;1.00;99.90
51733;DHT22;39139;53.144;6.244;2024-01-15T15:35:18;1.00;99.90
51733;DHT22;39139;53.144;6.244;2024-01-15T15:37:44;1.00;99.90
51733;DHT22;39139;53.144;6.244;2024-01-15T15:40:10;1.10;99.90
51733;DHT22;39139;53.144;6.244;2024-01-15T15:42:36;1.10;99.90
51733;DHT22;39139;53.144;6.244;2024-01-15T15:45:06;1.10;99.90
51733;DHT22;39139;53.144;6.244;2024-01-15T15:47:32;1.10;99.90